Time;durP1;ratioP1;P1;durP2;ratioP2;P2;SDS_P1;SDS_P2;PMS_P1;PMS_P2;Temp;Humidity;BMP_temperature;BMP_pressure;BME280_temperature;BME280_humidity;BME280_pressure;Samples;Min_cycle;Max_cycle;Signal;HPM_P1;HPM_P2
2022/10/04 00:00:29;;;;;;;5.05;2.90;;;12.10;72.00;;;;;;2344256;53;20956;-75
2022/10/04 00:03:05;;;;;;;4.78;2.83;;;12.10;72.10;;;;;;2347696;53;21047;-75
2022/10/04 00:05:31;;;;;;;4.37;2.78;;;12.10;72.10;;;;;;2346366;53;21008;-75
2022/10/04 00:08:05;;;;;;;4.57;2.62;;;12.00;72.10;;;;;;2353743;53;20956;-75
2022/10/04 00:10:32;;;;;;;4.68;2.62;;;12.00;72.10;;;;;;2345564;53;20932;-76
2022/10/04 00:13:05;;;;;;;6.57;2.80;;;12.00;72.20;;;;;;2513880;53;20955;-75
2022/10/04 00:15:38;;;;;;;4.77;2.20;;;12.00;72.10;;;;;;2345166;53;21409;-75
2022/10/04 00:18:39;;;;;;;;;;;11.90;72.00;;;;;;2359763;53;20980;-75
2022/10/04 00:21:06;;;;;;;4.00;2.40;;;12.00;71.30;;;;;;2359459;52;20656;-76
2022/10/04 00:23:52;;;;;;;3.62;2.22;;;11.90;71.90;;;;;;2356835;53;20968;-75
2022/10/04 00:28:13;;;;;;;4.18;2.40;;;11.90;71.60;;;;;;2350066;53;21019;-75
2022/10/04 00:30:39;;;;;;;6.10;2.95;;;11.80;71.30;;;;;;2354263;53;21121;-75
2022/10/04 00:33:05;;;;;;;5.60;2.97;;;11.80;71.90;;;;;;2350943;53;20997;-75
2022/10/04 00:35:53;;;;;;;4.57;3.08;;;11.80;72.20;;;;;;2368411;53;21008;-76
2022/10/04 00:38:26;;;;;;;4.03;2.40;;;11.80;71.80;;;;;;2358297;53;20976;-75
2022/10/04 00:41:02;;;;;;;4.50;2.78;;;11.70;72.10;;;;;;2342989;53;20972;-75
2022/10/04 00:43:42;;;;;;;6.10;2.75;;;11.70;72.10;;;;;;2588821;52;20952;-75
2022/10/04 00:46:17;;;;;;;4.47;2.67;;;11.70;72.10;;;;;;2344951;53;21048;-75
2022/10/04 00:49:02;;;;;;;5.75;3.25;;;11.70;72.20;;;;;;2347286;53;20968;-76
2022/10/04 00:51:33;;;;;;;5.80;3.00;;;11.70;72.30;;;;;;2347171;53;20958;-75
2022/10/04 00:54:21;;;;;;;6.32;2.90;;;11.70;72.30;;;;;;2343548;53;20927;-76
2022/10/04 00:56:54;;;;;;;4.72;3.00;;;11.60;72.40;;;;;;2326313;53;21078;-75
2022/10/04 00:59:25;;;;;;;;;;;11.60;72.50;;;;;;2361577;53;20952;-76
2022/10/04 01:01:57;;;;;;;6.32;3.00;;;11.60;71.70;;;;;;2345052;53;20120;-76
2022/10/04 01:04:32;;;;;;;6.18;3.58;;;11.60;72.50;;;;;;2345006;53;20964;-75
2022/10/04 01:06:59;;;;;;;4.80;3.35;;;11.70;72.80;;;;;;2585027;52;21238;-76
2022/10/04 01:09:25;;;;;;;6.15;3.47;;;11.60;73.60;;;;;;2365047;53;20898;-76
2022/10/04 01:12:04;;;;;;;4.80;3.03;;;11.60;72.90;;;;;;2601333;52;21406;-75
2022/10/04 01:14:43;;;;;;;5.25;3.20;;;11.60;72.70;;;;;;2347302;53;20903;-75
2022/10/04 01:17:09;;;;;;;5.10;2.92;;;11.60;72.80;;;;;;2356351;53;21349;-75
2022/10/04 01:19:35;;;;;;;6.12;3.28;;;11.60;72.90;;;;;;2346195;53;21337;-75
2022/10/04 01:22:13;;;;;;;7.87;3.72;;;11.60;73.00;;;;;;2587207;52;21033;-75
2022/10/04 01:24:42;;;;;;;5.40;3.05;;;11.60;72.80;;;;;;2346107;53;21042;-76
2022/10/04 01:27:34;;;;;;;6.80;3.60;;;11.60;72.90;;;;;;2587177;52;21412;-75
2022/10/04 01:30:01;;;;;;;7.60;3.60;;;11.60;72.60;;;;;;2592583;52;20960;-76
2022/10/04 01:32:28;;;;;;;6.70;3.67;;;11.70;73.00;;;;;;2347786;53;20910;-76
2022/10/04 01:34:55;;;;;;;5.70;3.20;;;11.60;72.90;;;;;;2607476;52;22022;-75
2022/10/04 01:37:21;;;;;;;5.82;3.70;;;11.70;73.00;;;;;;2347194;53;21331;-75
2022/10/04 01:39:47;;;;;;;6.50;3.30;;;11.70;73.00;;;;;;2344134;53;21020;-75
2022/10/04 01:42:33;;;;;;;7.90;3.83;;;11.70;73.00;;;;;;2346411;53;21308;-75
2022/10/04 01:45:39;;;;;;;5.15;3.05;;;11.60;72.70;;;;;;2343233;53;20963;-75
2022/10/04 01:48:09;;;;;;;7.78;3.55;;;11.70;72.60;;;;;;2585053;53;20932;-75
2022/10/04 01:50:51;;;;;;;8.48;3.40;;;11.70;73.00;;;;;;2342290;53;20964;-76
2022/10/04 01:53:22;;;;;;;7.57;3.67;;;11.70;73.00;;;;;;2359521;53;21388;-75
2022/10/04 01:55:51;;;;;;;5.43;3.22;;;11.70;73.10;;;;;;2586837;52;21504;-76
2022/10/04 01:58:22;;;;;;;5.78;3.50;;;11.70;73.00;;;;;;2398332;52;20972;-75
2022/10/04 02:00:58;;;;;;;6.90;3.62;;;11.70;73.10;;;;;;2343872;53;21078;-75
2022/10/04 02:03:38;;;;;;;6.12;3.97;;;11.80;73.10;;;;;;2345135;53;20963;-75
2022/10/04 02:06:06;;;;;;;5.35;3.20;;;11.80;73.00;;;;;;2344572;53;21028;-75
2022/10/04 02:08:33;;;;;;;5.62;3.70;;;11.70;73.00;;;;;;2340539;53;21558;-75
2022/10/04 02:11:00;;;;;;;7.43;4.05;;;11.80;73.20;;;;;;2344118;53;20927;-75
2022/10/04 02:13:28;;;;;;;6.22;3.72;;;11.80;73.30;;;;;;2585410;52;20923;-76
2022/10/04 02:15:55;;;;;;;5.62;3.70;;;11.80;73.40;;;;;;2384048;52;20996;-75
2022/10/04 02:18:21;;;;;;;7.40;3.15;;;11.80;73.50;;;;;;2587912;52;21765;-75
2022/10/04 02:20:48;;;;;;;4.70;2.83;;;11.80;73.60;;;;;;2347257;53;21517;-75
2022/10/04 02:23:16;;;;;;;4.50;2.92;;;11.80;73.50;;;;;;2357215;53;20951;-75
2022/10/04 02:25:42;;;;;;;4.68;2.80;;;11.80;73.40;;;;;;2588268;53;21053;-75
2022/10/04 02:28:09;;;;;;;4.95;3.42;;;11.90;73.30;;;;;;2345778;53;21361;-76
2022/10/04 02:30:36;;;;;;;7.70;2.80;;;11.80;73.10;;;;;;2346833;53;21401;-75
2022/10/04 02:33:03;;;;;;;5.12;2.95;;;11.90;73.20;;;;;;2343136;53;20967;-76
2022/10/04 02:35:36;;;;;;;3.67;2.47;;;11.90;73.30;;;;;;2597750;52;21018;-75
2022/10/04 02:38:25;;;;;;;6.12;3.00;;;11.90;73.20;;;;;;2341347;53;20968;-75
2022/10/04 02:40:57;;;;;;;3.87;2.50;;;11.90;72.60;;;;;;2343319;53;20998;-75
2022/10/04 02:43:38;;;;;;;3.35;2.10;;;11.90;72.80;;;;;;2346360;53;20943;-75
2022/10/04 02:46:24;;;;;;;6.32;3.10;;;11.90;72.80;;;;;;2349345;53;21083;-76
2022/10/04 02:48:58;;;;;;;5.03;3.22;;;11.80;72.70;;;;;;2351550;53;21335;-75
2022/10/04 02:51:45;;;;;;;6.28;3.35;;;11.90;72.80;;;;;;2586542;53;21035;-75
2022/10/04 02:54:31;;;;;;;4.90;2.65;;;11.80;72.50;;;;;;2369133;53;20945;-76
2022/10/04 02:56:57;;;;;;;4.03;2.70;;;11.80;72.60;;;;;;2358681;53;20966;-75
2022/10/04 02:59:24;;;;;;;4.68;3.00;;;11.90;72.80;;;;;;2357113;53;21026;-75
2022/10/04 03:01:54;;;;;;;4.50;2.60;;;11.80;72.50;;;;;;2338377;53;21000;-75
2022/10/04 03:04:22;;;;;;;5.05;3.20;;;11.80;72.30;;;;;;2405625;53;21309;-75
2022/10/04 03:06:48;;;;;;;5.20;2.87;;;11.80;72.20;;;;;;2585323;53;21599;-75
2022/10/04 03:09:15;;;;;;;4.50;2.72;;;11.70;72.30;;;;;;2359356;53;21040;-75
2022/10/04 03:11:41;;;;;;;5.95;3.03;;;11.70;72.30;;;;;;2344390;53;20928;-75
2022/10/04 03:14:12;;;;;;;3.92;2.45;;;11.70;72.20;;;;;;2354169;53;20984;-75
2022/10/04 03:16:41;;;;;;;4.85;2.92;;;11.70;72.20;;;;;;2341593;53;21571;-75
2022/10/04 03:19:07;;;;;;;4.07;2.60;;;11.70;72.20;;;;;;2585722;53;21430;-75
2022/10/04 03:21:33;;;;;;;4.85;3.03;;;11.70;72.20;;;;;;2587090;53;21219;-75
2022/10/04 03:24:00;;;;;;;5.82;3.60;;;11.60;72.10;;;;;;2346680;53;21291;-75
2022/10/04 03:26:43;;;;;;;5.43;3.37;;;11.60;72.20;;;;;;2494918;53;20940;-75
2022/10/04 03:29:10;;;;;;;5.05;3.15;;;11.60;72.20;;;;;;2341919;53;21047;-75
2022/10/04 03:31:40;;;;;;;4.35;2.83;;;11.50;72.30;;;;;;2353051;53;21392;-75
2022/10/04 03:34:15;;;;;;;5.05;2.85;;;11.60;72.40;;;;;;2451909;52;21269;-75
2022/10/04 03:36:41;;;;;;;4.90;2.97;;;11.60;72.10;;;;;;2362038;53;20947;-75
2022/10/04 03:39:09;;;;;;;4.87;2.87;;;11.60;72.10;;;;;;2338410;53;21444;-75
2022/10/04 03:41:39;;;;;;;4.62;2.80;;;11.50;71.90;;;;;;2346753;53;21482;-75
2022/10/04 03:44:06;;;;;;;5.55;3.53;;;11.50;71.60;;;;;;2355314;53;21028;-75
2022/10/04 03:46:32;;;;;;;5.72;3.00;;;11.50;71.60;;;;;;2585114;53;20932;-75
2022/10/04 03:48:58;;;;;;;5.32;3.35;;;11.40;71.50;;;;;;2587910;53;21000;-75
2022/10/04 03:51:25;;;;;;;4.80;2.80;;;11.40;71.70;;;;;;2341878;53;21031;-75
2022/10/04 03:53:54;;;;;;;5.43;3.47;;;11.40;71.90;;;;;;2354000;53;21050;-75
2022/10/04 03:56:30;;;;;;;6.00;3.30;;;11.40;71.90;;;;;;2351609;53;20975;-75
2022/10/04 03:58:57;;;;;;;4.82;2.92;;;11.40;71.70;;;;;;2585835;52;21051;-75
2022/10/04 04:02:57;;;;;;;4.95;2.70;;;11.30;71.90;;;;;;2341899;53;21272;-75
2022/10/04 04:05:36;;;;;;;4.78;2.50;;;11.30;71.10;;;;;;2344349;53;20922;-75
2022/10/04 04:08:08;;;;;;;6.45;2.65;;;11.30;71.60;;;;;;2342266;53;20930;-75
2022/10/04 04:10:37;;;;;;;5.22;2.87;;;11.30;71.80;;;;;;2383396;52;20972;-75
2022/10/04 04:13:22;;;;;;;5.40;3.22;;;11.20;71.80;;;;;;2480985;52;20950;-75
2022/10/04 04:15:49;;;;;;;5.22;3.53;;;11.20;71.70;;;;;;2587357;53;20989;-75
2022/10/04 04:18:22;;;;;;;6.97;3.28;;;11.20;71.90;;;;;;2394012;53;21019;-75
2022/10/04 04:20:50;;;;;;;5.62;3.45;;;11.20;71.80;;;;;;2342972;53;21374;-75
2022/10/04 04:24:24;;;;;;;5.28;2.97;;;11.20;72.00;;;;;;2345834;53;21381;-75
2022/10/04 04:26:55;;;;;;;5.35;3.15;;;11.20;71.90;;;;;;2584432;53;21111;-75
2022/10/04 04:29:27;;;;;;;4.60;3.03;;;11.20;72.10;;;;;;2345399;53;21027;-75
2022/10/04 04:32:07;;;;;;;4.72;2.90;;;11.10;72.20;;;;;;2596345;52;21041;-75
2022/10/04 04:34:56;;;;;;;5.35;3.17;;;11.10;72.20;;;;;;2353565;53;21469;-75
2022/10/04 04:37:22;;;;;;;4.55;2.70;;;11.10;72.20;;;;;;2343269;53;21019;-75
2022/10/04 04:39:53;;;;;;;5.05;3.30;;;11.10;72.30;;;;;;2344712;53;21409;-75
2022/10/04 04:42:32;;;;;;;4.72;3.00;;;11.10;72.40;;;;;;2344532;53;20955;-75
2022/10/04 04:45:01;;;;;;;4.70;2.97;;;11.10;72.90;;;;;;2344860;53;21076;-75
2022/10/04 04:47:39;;;;;;;5.20;3.03;;;11.10;72.40;;;;;;2344378;53;21255;-75
2022/10/04 04:50:14;;;;;;;5.35;3.15;;;11.10;72.20;;;;;;2346014;53;20920;-75
2022/10/04 04:52:42;;;;;;;4.43;3.00;;;11.10;72.20;;;;;;2345351;53;20982;-75
2022/10/04 04:55:18;;;;;;;4.37;2.72;;;11.10;72.20;;;;;;2344987;53;21064;-75
2022/10/04 04:57:46;;;;;;;4.50;2.67;;;11.10;72.10;;;;;;2345407;53;20977;-75
2022/10/04 05:00:16;;;;;;;5.60;3.40;;;11.10;72.20;;;;;;2338749;53;20941;-75
2022/10/04 05:02:50;;;;;;;4.82;3.08;;;11.10;72.30;;;;;;2587776;53;20928;-75
2022/10/04 05:05:29;;;;;;;5.95;3.15;;;11.10;72.30;;;;;;2342989;53;20956;-75
2022/10/04 05:08:18;;;;;;;4.43;3.00;;;11.10;72.30;;;;;;2586555;53;21010;-75
2022/10/04 05:10:46;;;;;;;4.00;2.55;;;11.10;72.00;;;;;;2345280;53;21003;-75
2022/10/04 05:13:13;;;;;;;4.40;2.97;;;11.10;72.00;;;;;;2357336;53;21023;-75
2022/10/04 05:15:39;;;;;;;4.32;2.53;;;11.10;72.00;;;;;;2590326;52;21011;-75
2022/10/04 05:18:16;;;;;;;4.93;3.47;;;11.00;71.90;;;;;;2345767;53;20974;-75
2022/10/04 05:20:45;;;;;;;4.03;2.67;;;11.00;71.70;;;;;;2343723;53;20944;-75
2022/10/04 05:23:12;;;;;;;4.07;2.60;;;11.00;71.70;;;;;;2343239;53;20943;-75
2022/10/04 05:25:38;;;;;;;3.97;2.30;;;11.00;71.80;;;;;;2344912;53;21479;-75
2022/10/04 05:28:04;;;;;;;3.75;2.55;;;11.00;71.90;;;;;;2340126;53;21532;-75
2022/10/04 05:30:53;;;;;;;3.65;2.25;;;11.00;72.10;;;;;;2345479;53;21389;-75
2022/10/04 05:33:39;;;;;;;3.60;2.33;;;11.00;72.10;;;;;;2343724;53;20927;-75
2022/10/04 05:40:04;;;;;;;3.90;2.30;;;11.00;72.20;;;;;;2342580;53;21018;-75
2022/10/04 05:42:43;;;;;;;2.90;1.70;;;11.00;71.80;;;;;;2339041;53;21066;-75
2022/10/04 05:45:31;;;;;;;2.80;1.60;;;11.00;72.00;;;;;;2585879;53;20983;-75
2022/10/04 05:47:59;;;;;;;3.75;2.03;;;11.00;71.60;;;;;;2534082;52;21590;-75
2022/10/04 05:50:30;;;;;;;7.43;2.15;;;11.00;71.90;;;;;;2342450;53;21091;-75
2022/10/04 05:53:32;;;;;;;4.93;2.50;;;11.00;71.70;;;;;;2342370;53;21004;-75
2022/10/04 05:57:57;;;;;;;3.20;2.08;;;10.90;71.30;;;;;;2589421;52;21001;-75
2022/10/04 06:01:50;;;;;;;5.32;1.52;;;10.90;71.20;;;;;;2557882;52;20983;-75
2022/10/04 06:07:33;;;;;;;5.95;1.62;;;10.90;70.80;;;;;;2342409;53;21330;-75
2022/10/04 06:10:24;;;;;;;3.35;1.50;;;10.80;70.90;;;;;;2340281;53;21415;-75
2022/10/04 06:13:36;;;;;;;4.18;1.75;;;10.80;71.20;;;;;;2343563;53;20952;-75
2022/10/04 06:22:32;;;;;;;4.95;1.98;;;10.70;71.00;;;;;;2359540;53;21463;-75
2022/10/04 06:25:06;;;;;;;2.90;1.60;;;10.70;70.90;;;;;;2346222;53;20979;-75
2022/10/04 06:29:09;;;;;;;8.18;2.15;;;10.70;71.70;;;;;;2343557;53;21008;-75
2022/10/04 06:31:57;;;;;;;5.07;1.75;;;10.60;72.00;;;;;;2344075;53;20974;-75
2022/10/04 06:36:21;;;;;;;3.95;2.30;;;10.60;72.00;;;;;;2358336;53;21362;-75
2022/10/04 06:40:07;;;;;;;3.80;2.12;;;10.60;71.80;;;;;;2343179;53;20998;-75
2022/10/04 06:46:57;;;;;;;4.12;1.95;;;10.70;72.30;;;;;;2359344;53;21037;-75
2022/10/04 06:50:43;;;;;;;3.20;1.60;;;10.70;72.50;;;;;;2344884;53;21052;-75
2022/10/04 06:53:52;;;;;;;3.20;1.90;;;10.80;72.90;;;;;;2345477;53;20935;-75
2022/10/04 06:57:12;;;;;;;3.10;1.70;;;10.80;73.50;;;;;;2344171;53;20996;-75
2022/10/04 06:59:47;;;;;;;3.10;1.80;;;10.90;73.20;;;;;;2586040;53;21288;-75
2022/10/04 07:03:50;;;;;;;3.15;1.92;;;10.90;73.70;;;;;;2340830;53;20960;-75
2022/10/04 07:06:22;;;;;;;2.97;1.62;;;11.00;73.50;;;;;;2589207;53;21064;-75
2022/10/04 07:08:49;;;;;;;3.67;2.12;;;11.00;74.00;;;;;;2342259;53;21088;-75
2022/10/04 07:11:31;;;;;;;6.35;2.17;;;11.10;74.30;;;;;;2472951;53;21047;-75
2022/10/04 07:14:13;;;;;;;9.23;3.43;;;11.10;74.30;;;;;;2345362;53;21321;-75
2022/10/04 07:16:54;;;;;;;5.65;2.97;;;11.20;74.50;;;;;;2423724;53;20956;-75
2022/10/04 07:19:47;;;;;;;4.93;2.92;;;11.20;74.70;;;;;;2340388;53;21362;-75
2022/10/04 07:22:16;;;;;;;4.78;2.65;;;11.30;74.80;;;;;;2342470;53;20956;-75
2022/10/04 07:26:18;;;;;;;5.03;2.50;;;11.40;75.00;;;;;;2343058;54;21863;-76
2022/10/04 07:31:31;;;;;;;8.07;2.95;;;11.60;75.00;;;;;;2589639;53;21000;-75
2022/10/04 07:34:09;;;;;;;4.78;2.45;;;11.60;74.90;;;;;;2347115;53;20994;-75
2022/10/04 07:36:55;;;;;;;5.87;3.35;;;11.70;75.10;;;;;;2341315;53;21000;-75
2022/10/04 07:40:34;;;;;;;3.50;2.10;;;11.70;75.00;;;;;;2583271;53;20948;-75
2022/10/04 07:43:19;;;;;;;3.80;1.98;;;11.80;75.20;;;;;;2344970;53;20952;-75
2022/10/04 07:45:47;;;;;;;4.53;2.25;;;11.90;75.10;;;;;;2342188;53;21024;-75
2022/10/04 07:48:22;;;;;;;5.62;2.35;;;12.00;75.10;;;;;;2588813;53;21481;-75
2022/10/04 07:51:35;;;;;;;5.57;2.70;;;12.00;74.90;;;;;;2342163;53;21934;-75
2022/10/04 07:54:46;;;;;;;4.05;2.42;;;12.00;74.30;;;;;;2340643;53;21017;-75
2022/10/04 07:57:33;;;;;;;4.20;2.42;;;12.10;74.50;;;;;;2324112;54;21615;-76
2022/10/04 08:01:00;;;;;;;6.03;2.50;;;12.10;74.40;;;;;;2342790;54;20957;-75
2022/10/04 08:05:31;;;;;;;5.05;2.92;;;12.20;74.10;;;;;;2347653;53;21007;-75
2022/10/04 08:08:24;;;;;;;8.15;3.62;;;12.20;74.40;;;;;;2354572;53;20986;-75
2022/10/04 08:14:51;;;;;;;6.60;3.80;;;12.30;74.70;;;;;;2350448;53;20960;-75
2022/10/04 08:17:50;;;;;;;8.00;3.30;;;12.30;74.60;;;;;;2342908;53;20942;-75
2022/10/04 08:21:51;;;;;;;5.65;3.53;;;12.50;75.00;;;;;;2351634;53;20971;-76
2022/10/04 08:27:07;;;;;;;7.55;4.40;;;12.60;74.80;;;;;;2343584;53;20960;-76
2022/10/04 08:34:45;;;;;;;6.03;3.40;;;12.60;74.50;;;;;;2342305;53;21527;-75
2022/10/04 08:37:52;;;;;;;6.35;2.60;;;12.70;74.90;;;;;;2323923;54;20992;-75
2022/10/04 08:41:55;;;;;;;5.85;3.83;;;12.80;74.40;;;;;;2343448;54;20944;-75
2022/10/04 08:46:19;;;;;;;6.78;4.37;;;12.90;74.40;;;;;;2346455;53;20991;-76
2022/10/04 08:50:31;;;;;;;5.45;3.87;;;12.90;74.60;;;;;;2379164;53;21401;-76
2022/10/04 08:56:09;;;;;;;7.25;4.30;;;13.00;74.90;;;;;;2570235;53;20952;-75
2022/10/04 09:02:02;;;;;;;6.75;4.60;;;13.20;75.70;;;;;;2514673;52;20986;-75
2022/10/04 09:06:37;;;;;;;5.35;3.70;;;13.20;75.50;;;;;;2589439;53;21769;-76
2022/10/04 09:12:15;;;;;;;5.43;3.62;;;13.30;75.10;;;;;;2527296;53;21427;-76
2022/10/04 09:15:25;;;;;;;4.72;3.00;;;13.50;75.30;;;;;;2423851;53;21436;-76
2022/10/04 09:18:20;;;;;;;6.97;4.18;;;13.50;75.80;;;;;;2588153;53;21386;-76
2022/10/04 09:23:41;;;;;;;5.65;3.60;;;13.60;76.10;;;;;;2463391;53;21044;-77
2022/10/04 09:28:15;;;;;;;4.97;3.35;;;13.70;75.50;;;;;;2342234;54;21031;-77
2022/10/04 09:32:22;;;;;;;6.75;4.18;;;13.80;76.20;;;;;;2342312;54;20952;-77
2022/10/04 09:35:23;;;;;;;5.80;4.10;;;13.90;76.30;;;;;;2412335;53;21008;-76
2022/10/04 09:41:18;;;;;;;5.87;4.10;;;14.00;76.30;;;;;;2588848;53;21854;-76
2022/10/04 09:44:24;;;;;;;5.55;3.78;;;14.10;75.90;;;;;;2342955;54;20939;-76
2022/10/04 09:47:13;;;;;;;7.97;5.62;;;14.20;76.30;;;;;;2367833;53;21446;-77
2022/10/04 09:49:58;;;;;;;10.35;6.95;;;14.30;76.90;;;;;;2537537;53;21011;-79
2022/10/04 09:53:51;;;;;;;10.18;6.97;;;14.40;76.90;;;;;;2589624;53;21429;-76
2022/10/04 10:02:45;;;;;;;7.80;5.70;;;14.40;77.00;;;;;;2343528;53;20936;-76
2022/10/04 10:06:20;;;;;;;6.85;4.62;;;14.50;76.40;;;;;;2589166;53;21485;-76
2022/10/04 10:19:38;;;;;;;9.05;6.28;;;14.90;76.80;;;;;;2418107;53;21287;-76
2022/10/04 10:24:43;;;;;;;7.00;5.07;;;15.00;77.10;;;;;;2346936;53;20907;-77
2022/10/04 10:27:32;;;;;;;7.87;4.97;;;15.30;77.70;;;;;;2425247;53;20964;-78
2022/10/04 10:30:23;;;;;;;7.93;5.78;;;15.40;78.10;;;;;;2346111;53;20934;-78
2022/10/04 10:33:28;;;;;;;8.90;6.18;;;15.50;78.10;;;;;;2589567;52;20909;-77
2022/10/04 10:39:06;;;;;;;8.77;5.12;;;15.60;78.10;;;;;;2415917;53;20940;-77
2022/10/04 10:44:28;;;;;;;8.27;5.00;;;15.80;77.70;;;;;;2406950;53;21025;-77
2022/10/04 10:48:32;;;;;;;6.30;4.35;;;15.90;78.30;;;;;;2403782;53;20920;-77
2022/10/04 10:54:06;;;;;;;;;;;16.00;78.50;;;;;;2368103;53;21107;-78
2022/10/04 10:59:28;;;;;;;5.75;4.00;;;16.10;77.80;;;;;;2513993;52;20074;-77
2022/10/04 11:03:29;;;;;;;7.00;4.00;;;16.40;78.40;;;;;;2526150;53;21908;-77
2022/10/04 11:06:37;;;;;;;6.55;4.18;;;16.50;78.70;;;;;;2375151;53;20941;-78
2022/10/04 11:12:17;;;;;;;9.25;5.37;;;16.60;79.30;;;;;;2523175;53;20967;-78
2022/10/04 11:14:53;;;;;;;6.82;4.70;;;16.80;78.80;;;;;;2352003;53;21008;-81
2022/10/04 11:20:04;;;;;;;5.62;4.03;;;16.90;79.90;;;;;;2548166;53;21111;-78
2022/10/04 11:23:29;;;;;;;5.78;4.00;;;17.10;78.60;;;;;;2342925;54;21312;-77
2022/10/04 11:26:15;;;;;;;6.93;4.68;;;17.20;78.90;;;;;;2343386;54;20939;-78
2022/10/04 11:35:48;;;;;;;6.12;4.40;;;17.30;79.80;;;;;;2589131;52;21985;-78
2022/10/04 11:45:15;;;;;;;7.00;3.47;;;17.40;79.20;;;;;;2342848;53;20945;-80
2022/10/04 11:48:01;;;;;;;5.43;3.15;;;17.70;79.00;;;;;;2345978;53;20983;-80
2022/10/04 11:52:08;;;;;;;5.57;3.45;;;18.00;78.70;;;;;;2497337;52;21460;-78
2022/10/04 11:57:45;;;;;;;5.35;2.80;;;18.10;78.10;;;;;;2434545;53;21008;-80
2022/10/04 12:00:17;;;;;;;4.40;3.05;;;18.20;77.90;;;;;;2476107;53;21500;-79
2022/10/04 12:05:14;;;;;;;4.82;2.80;;;18.30;79.20;;;;;;2374474;53;20967;-79
2022/10/04 12:08:02;;;;;;;4.35;2.87;;;18.30;77.20;;;;;;2383392;53;20896;-79
2022/10/04 12:10:41;;;;;;;4.93;3.25;;;18.40;77.90;;;;;;2355895;53;20895;-80
2022/10/04 12:13:33;;;;;;;6.03;3.05;;;18.50;78.00;;;;;;2439174;52;21268;-80
2022/10/04 12:16:04;;;;;;;;;;;18.50;78.00;;;;;;2401450;53;21338;-80
2022/10/04 12:19:31;;;;;;;6.10;3.25;;;18.60;77.30;;;;;;2342716;54;20126;-80
2022/10/04 12:23:20;;;;;;;7.10;3.33;;;18.60;77.10;;;;;;2353576;53;20956;-79
2022/10/04 12:29:01;;;;;;;5.53;3.12;;;18.70;77.10;;;;;;2474199;53;21000;-82
2022/10/04 12:31:34;;;;;;;4.37;2.92;;;18.70;78.10;;;;;;2343439;53;20959;-77
2022/10/04 12:36:43;;;;;;;4.55;2.92;;;18.80;78.40;;;;;;2348066;53;21005;-79
2022/10/04 12:39:40;;;;;;;5.00;3.17;;;18.90;76.80;;;;;;2385809;53;21341;-80
2022/10/04 12:44:14;;;;;;;3.95;2.58;;;19.00;77.80;;;;;;2343644;54;21048;-78
2022/10/04 12:48:04;;;;;;;6.12;3.28;;;19.00;77.30;;;;;;2346558;53;20983;-82
2022/10/04 12:50:59;;;;;;;5.35;3.15;;;19.10;76.50;;;;;;2366505;53;21602;-79
2022/10/04 12:57:44;;;;;;;10.00;3.50;;;19.20;77.00;;;;;;2419232;53;21051;-79
2022/10/04 13:00:30;;;;;;;5.05;2.53;;;19.20;76.50;;;;;;2510885;53;21008;-78
2022/10/04 13:03:17;;;;;;;6.00;3.15;;;19.30;77.00;;;;;;2345972;53;20947;-79
2022/10/04 13:10:22;;;;;;;4.18;2.72;;;19.30;77.70;;;;;;2589804;52;21031;-79
2022/10/04 13:13:32;;;;;;;4.60;2.53;;;19.40;76.50;;;;;;2343987;53;20956;-79
2022/10/04 13:16:35;;;;;;;3.90;2.47;;;19.50;76.70;;;;;;2343511;53;20930;-79
2022/10/04 13:19:37;;;;;;;;;;;19.50;76.80;;;;;;2351967;53;20995;-83
2022/10/04 13:25:40;;;;;;;4.25;2.42;;;19.60;76.60;;;;;;2358858;53;20213;-78
2022/10/04 13:30:01;;;;;;;4.30;2.30;;;19.60;76.30;;;;;;2357611;53;21522;-78
2022/10/04 13:32:32;;;;;;;3.97;2.40;;;19.70;76.40;;;;;;2535864;53;20949;-79
2022/10/04 13:35:35;;;;;;;4.62;2.17;;;19.80;77.70;;;;;;2368649;53;21087;-79
2022/10/04 13:46:39;;;;;;;4.85;2.58;;;19.80;76.70;;;;;;2342648;54;20936;-79
2022/10/04 13:56:59;;;;;;;5.12;2.03;;;20.00;76.30;;;;;;2505344;53;20995;-82
2022/10/04 13:59:45;;;;;;;5.15;3.00;;;20.10;76.30;;;;;;2396229;53;21044;-79
2022/10/04 14:02:50;;;;;;;5.07;3.12;;;20.10;77.70;;;;;;2343233;54;21087;-79
2022/10/04 14:06:41;;;;;;;4.80;3.10;;;20.10;77.30;;;;;;2361316;53;20948;-81
2022/10/04 14:12:11;;;;;;;4.37;2.60;;;20.20;77.10;;;;;;2343111;53;20960;-78
2022/10/04 14:15:06;;;;;;;4.75;2.30;;;20.30;76.80;;;;;;2343769;53;20940;-79
2022/10/04 14:21:10;;;;;;;4.95;2.78;;;20.30;77.90;;;;;;2589947;52;20974;-80
2022/10/04 14:26:49;;;;;;;4.07;2.10;;;20.40;77.50;;;;;;2395917;53;21723;-79
2022/10/04 14:33:26;;;;;;;3.28;1.98;;;20.60;77.80;;;;;;2363089;53;21003;-78
2022/10/04 14:36:22;;;;;;;3.37;1.80;;;20.70;76.30;;;;;;2350243;53;20915;-80
2022/10/04 14:39:23;;;;;;;4.82;2.67;;;20.80;76.90;;;;;;2378328;52;21709;-77
2022/10/04 14:43:38;;;;;;;3.58;2.55;;;20.80;76.40;;;;;;2367222;53;21265;-78
2022/10/04 14:46:37;;;;;;;3.42;2.37;;;20.80;76.30;;;;;;2346806;53;20940;-79
2022/10/04 14:49:21;;;;;;;4.32;2.55;;;20.90;75.90;;;;;;2344369;53;20937;-78
2022/10/04 14:55:09;;;;;;;4.10;2.62;;;20.90;76.40;;;;;;2343099;54;20916;-82
2022/10/04 15:01:20;;;;;;;4.22;2.40;;;20.90;75.70;;;;;;2348373;53;20972;-81
2022/10/04 15:05:43;;;;;;;4.78;1.83;;;21.00;76.40;;;;;;2435884;53;20963;-78
2022/10/04 15:08:33;;;;;;;3.80;2.03;;;21.10;75.80;;;;;;2351847;53;21003;-77
2022/10/04 15:11:12;;;;;;;3.42;2.12;;;21.10;76.30;;;;;;2414369;53;20928;-80
2022/10/04 15:13:54;;;;;;;4.45;2.60;;;21.10;77.10;;;;;;2386021;53;20980;-79
2022/10/04 15:16:42;;;;;;;4.72;2.53;;;21.10;77.50;;;;;;2379659;53;20949;-81
2022/10/04 15:19:42;;;;;;;4.00;2.37;;;21.10;75.90;;;;;;2354688;53;21492;-80
2022/10/04 15:22:31;;;;;;;3.87;2.08;;;21.20;75.70;;;;;;2354857;53;20994;-80
2022/10/04 15:24:58;;;;;;;4.37;2.50;;;21.20;77.00;;;;;;2367564;53;20968;-82
2022/10/04 15:27:46;;;;;;;4.00;2.70;;;21.20;77.10;;;;;;2345394;53;21015;-81
2022/10/04 15:30:43;;;;;;;4.03;2.45;;;21.20;75.60;;;;;;2350803;53;21056;-80
2022/10/04 15:33:27;;;;;;;3.83;2.45;;;21.30;75.50;;;;;;2386445;52;20930;-78
2022/10/04 15:36:59;;;;;;;3.45;2.30;;;21.30;76.10;;;;;;2346416;53;20967;-78
2022/10/04 15:39:45;;;;;;;4.18;2.35;;;21.30;75.40;;;;;;2326661;53;21035;-79
2022/10/04 15:42:47;;;;;;;3.50;2.47;;;21.30;75.20;;;;;;2352936;53;20916;-80
2022/10/04 15:47:13;;;;;;;5.87;2.20;;;21.30;76.10;;;;;;2343813;53;21023;-80
2022/10/04 15:56:18;;;;;;;4.03;2.08;;;21.30;75.40;;;;;;2343301;53;20931;-79
2022/10/04 16:00:26;;;;;;;5.40;1.67;;;21.30;74.60;;;;;;2342936;53;21063;-79
2022/10/04 16:03:16;;;;;;;3.45;1.92;;;21.30;74.10;;;;;;2361070;53;21062;-78
2022/10/04 16:06:04;;;;;;;4.07;2.30;;;21.20;75.20;;;;;;2395422;53;20960;-81
2022/10/04 16:10:25;;;;;;;5.03;2.20;;;21.20;74.30;;;;;;2442987;53;21066;-79
2022/10/04 16:19:33;;;;;;;3.47;2.20;;;21.10;74.20;;;;;;2358949;53;21137;-81
2022/10/04 16:22:26;;;;;;;2.85;1.48;;;21.10;74.00;;;;;;2395924;53;21127;-79
2022/10/04 16:24:56;;;;;;;;;;;21.10;74.40;;;;;;2338503;53;21147;-79
2022/10/04 16:32:42;;;;;;;5.15;2.75;;;21.10;74.10;;;;;;2445373;53;20121;-80
2022/10/04 16:36:49;;;;;;;4.22;2.42;;;21.00;74.50;;;;;;2376675;53;20972;-81
2022/10/04 16:40:59;;;;;;;4.07;2.45;;;20.90;74.90;;;;;;2343023;53;21378;-79
2022/10/04 16:43:50;;;;;;;4.53;1.92;;;20.90;74.30;;;;;;2343999;53;20953;-79
2022/10/04 16:46:21;;;;;;;7.30;2.17;;;20.80;74.20;;;;;;2358082;53;20939;-78
2022/10/04 16:48:59;;;;;;;3.12;1.92;;;20.80;75.20;;;;;;2354648;52;21303;-79
2022/10/04 16:52:33;;;;;;;3.15;1.85;;;20.70;74.40;;;;;;2342213;53;21410;-82
2022/10/04 16:55:54;;;;;;;3.28;1.92;;;20.70;73.90;;;;;;2370749;53;21051;-78
2022/10/04 16:59:43;;;;;;;3.42;1.83;;;20.60;73.60;;;;;;2342760;53;20996;-79
2022/10/04 17:03:05;;;;;;;3.58;2.00;;;20.50;73.00;;;;;;2352394;53;20944;-79
2022/10/04 17:06:12;;;;;;;7.45;2.40;;;20.40;72.80;;;;;;2361109;52;20984;-79
2022/10/04 17:10:28;;;;;;;5.20;2.28;;;20.40;73.10;;;;;;2382222;53;21775;-80
2022/10/04 17:17:07;;;;;;;4.53;2.10;;;20.30;72.70;;;;;;2341822;53;20944;-81
2022/10/04 17:19:43;;;;;;;2.75;1.70;;;20.20;72.70;;;;;;2589671;53;20932;-79
2022/10/04 17:24:02;;;;;;;3.03;2.00;;;20.00;73.80;;;;;;2539754;53;21008;-80
2022/10/04 17:27:05;;;;;;;3.62;2.17;;;20.00;73.10;;;;;;2508595;53;21015;-78
2022/10/04 17:30:26;;;;;;;3.42;1.90;;;19.90;73.10;;;;;;2342826;53;20964;-81
2022/10/04 17:36:12;;;;;;;3.28;2.00;;;19.80;73.10;;;;;;2342895;53;20961;-79
2022/10/04 17:40:48;;;;;;;3.10;1.77;;;19.70;72.80;;;;;;2381962;53;21060;-78
2022/10/04 17:43:23;;;;;;;3.10;1.87;;;19.60;72.70;;;;;;2341706;53;20968;-79
2022/10/04 17:46:04;;;;;;;3.58;1.95;;;19.50;73.80;;;;;;2412034;53;21402;-79
2022/10/04 17:57:40;;;;;;;5.40;2.37;;;19.20;73.60;;;;;;2366980;53;21012;-78
2022/10/04 18:00:18;;;;;;;5.32;2.53;;;19.20;73.70;;;;;;2333609;54;21460;-79
2022/10/04 18:03:12;;;;;;;3.87;2.60;;;19.10;73.40;;;;;;2337984;53;20959;-79
2022/10/04 18:06:02;;;;;;;4.45;2.50;;;19.10;73.10;;;;;;2405992;52;21011;-78